Time;durP1;ratioP1;P1;durP2;ratioP2;P2;SDS_P1;SDS_P2;PMS_P1;PMS_P2;Temp;Humidity;BMP_temperature;BMP_pressure;BME280_temperature;BME280_humidity;BME280_pressure;Samples;Min_cycle;Max_cycle;Signal;HPM_P1;HPM_P2
2021/01/15 00:00:20;;;;;;;14.57;8.33;;;;;;;-146.38;100.00;60817.44;1037116;28;20021;-46
2021/01/15 00:00:51;;;;;;;11.33;8.17;;;;;;;-146.38;100.00;60817.44;1036818;28;20014;-46
2021/01/15 00:01:22;;;;;;;14.47;7.77;;;;;;;-146.38;100.00;60817.44;1040704;28;20057;-45
2021/01/15 00:01:59;;;;;;;11.77;8.02;;;;;;;-146.38;100.00;60817.44;1040701;28;20020;-45
2021/01/15 00:02:29;;;;;;;12.85;8.50;;;;;;;-146.38;100.00;60817.44;1041149;28;20076;-45
2021/01/15 00:03:00;;;;;;;15.33;8.60;;;;;;;-146.38;100.00;60817.44;1041018;28;20056;-46
2021/01/15 00:03:37;;;;;;;15.17;9.33;;;;;;;-146.38;100.00;60817.44;1041386;28;20047;-46
2021/01/15 00:04:08;;;;;;;15.57;8.65;;;;;;;-146.38;100.00;60817.44;1041089;28;20013;-45
2021/01/15 00:04:38;;;;;;;11.47;8.27;;;;;;;-146.38;100.00;60817.44;1041220;28;20049;-46
2021/01/15 00:05:09;;;;;;;13.90;8.43;;;;;;;-146.38;100.00;60817.44;1040687;28;20428;-48
2021/01/15 00:05:40;;;;;;;13.20;8.20;;;;;;;-146.38;100.00;60817.44;1041065;28;20054;-45
2021/01/15 00:06:18;;;;;;;12.93;8.30;;;;;;;-146.38;100.00;60817.44;1041137;28;20021;-46
2021/01/15 00:06:48;;;;;;;12.32;8.25;;;;;;;-146.38;100.00;60817.44;1040893;28;20470;-46
2021/01/15 00:07:19;;;;;;;11.33;8.47;;;;;;;-146.38;100.00;60817.44;1040876;28;20104;-46
2021/01/15 00:07:49;;;;;;;12.57;8.50;;;;;;;-146.38;100.00;60817.44;1040725;28;20097;-46
2021/01/15 00:08:20;;;;;;;12.13;7.87;;;;;;;-146.38;100.00;60817.44;1040908;28;20047;-46
2021/01/15 00:08:50;;;;;;;13.30;8.33;;;;;;;-146.38;100.00;60817.44;1040805;28;20029;-46
2021/01/15 00:09:21;;;;;;;16.00;9.03;;;;;;;-146.38;100.00;60817.44;1041147;28;20021;-45
2021/01/15 00:09:51;;;;;;;13.13;9.00;;;;;;;-146.38;100.00;60817.44;1041307;28;20014;-46
2021/01/15 00:10:22;;;;;;;14.23;8.57;;;;;;;-146.38;100.00;60817.44;1041068;28;20010;-46
2021/01/15 00:10:52;;;;;;;12.83;9.00;;;;;;;-146.38;100.00;60817.44;1041185;28;20022;-46
2021/01/15 00:11:28;;;;;;;14.37;9.50;;;;;;;-146.38;100.00;60817.44;1041118;28;20487;-45
2021/01/15 00:11:58;;;;;;;13.75;9.32;;;;;;;-146.38;100.00;60817.44;1040858;28;20350;-44
2021/01/15 00:12:29;;;;;;;13.60;9.47;;;;;;;-146.38;100.00;60817.44;1040884;28;20025;-45
2021/01/15 00:12:59;;;;;;;14.20;8.60;;;;;;;-146.38;100.00;60817.44;1040651;28;20059;-46
2021/01/15 00:13:30;;;;;;;16.60;9.27;;;;;;;-146.38;100.00;60817.44;1040834;28;20010;-46
2021/01/15 00:14:01;;;;;;;13.83;9.33;;;;;;;-146.38;100.00;60817.44;1041120;28;20024;-47
2021/01/15 00:14:32;;;;;;;14.68;9.18;;;;;;;-146.38;100.00;60817.44;1041256;28;20398;-45
2021/01/15 00:15:03;;;;;;;11.97;8.80;;;;;;;-146.38;100.00;60817.44;1041175;28;20056;-46
2021/01/15 00:15:34;;;;;;;13.60;9.45;;;;;;;-146.38;100.00;60817.44;1041076;28;20488;-45
2021/01/15 00:16:05;;;;;;;12.80;8.83;;;;;;;-146.38;100.00;60817.44;1041151;28;20017;-46
2021/01/15 00:16:35;;;;;;;17.20;9.50;;;;;;;-146.38;100.00;60817.44;1041012;28;20022;-47
2021/01/15 00:17:06;;;;;;;12.77;8.90;;;;;;;-146.38;100.00;60817.44;1041324;28;20041;-46
2021/01/15 00:17:36;;;;;;;14.10;8.57;;;;;;;-146.38;100.00;60817.44;1041205;28;20490;-48
2021/01/15 00:18:07;;;;;;;15.40;9.50;;;;;;;-146.38;100.00;60817.44;1041287;28;20461;-44
2021/01/15 00:18:37;;;;;;;14.40;9.20;;;;;;;-146.38;100.00;60817.44;1041245;28;20013;-47
2021/01/15 00:19:07;;;;;;;11.30;8.53;;;;;;;-146.38;100.00;60817.44;1041112;28;20084;-46
2021/01/15 00:19:38;;;;;;;14.40;8.90;;;;;;;-146.38;100.00;60817.44;1040972;28;20013;-46
2021/01/15 00:20:09;;;;;;;13.57;8.67;;;;;;;-146.38;100.00;60817.44;1041215;28;20135;-48
2021/01/15 00:20:40;;;;;;;13.00;8.90;;;;;;;-146.38;100.00;60817.44;1041173;28;20089;-46
2021/01/15 00:21:21;;;;;;;19.20;9.13;;;;;;;-146.38;100.00;60817.44;1041157;28;20049;-46
2021/01/15 00:21:51;;;;;;;11.85;8.55;;;;;;;-146.38;100.00;60817.44;1040789;28;20072;-46
2021/01/15 00:22:21;;;;;;;13.77;9.27;;;;;;;-146.38;100.00;60817.44;1040786;28;20123;-48
2021/01/15 00:22:52;;;;;;;12.83;8.50;;;;;;;-146.38;100.00;60817.44;1040735;28;20477;-47
2021/01/15 00:23:22;;;;;;;15.10;9.17;;;;;;;-146.38;100.00;60817.44;1040856;28;20017;-47
2021/01/15 00:23:54;;;;;;;13.53;8.33;;;;;;;-146.38;100.00;60817.44;1041422;28;20024;-46
2021/01/15 00:24:24;;;;;;;13.07;8.15;;;;;;;-146.38;100.00;60817.44;1040785;28;20017;-45
2021/01/15 00:24:55;;;;;;;12.40;8.20;;;;;;;-146.38;100.00;60817.44;1036587;28;20487;-45
2021/01/15 00:25:25;;;;;;;13.33;8.77;;;;;;;-146.38;100.00;60817.44;1036655;28;20026;-47
2021/01/15 00:25:56;;;;;;;12.37;8.80;;;;;;;-146.38;100.00;60817.44;1036909;28;20445;-45
2021/01/15 00:26:28;;;;;;;12.67;9.27;;;;;;;-146.38;100.00;60817.44;1040805;28;20021;-45
2021/01/15 00:26:58;;;;;;;14.50;9.00;;;;;;;-146.38;100.00;60817.44;1041250;28;20041;-45
2021/01/15 00:27:29;;;;;;;11.13;8.50;;;;;;;-146.38;100.00;60817.44;1041126;28;20124;-43
2021/01/15 00:27:59;;;;;;;14.10;9.17;;;;;;;-146.38;100.00;60817.44;1041010;28;20114;-45
2021/01/15 00:28:29;;;;;;;14.00;9.33;;;;;;;-146.38;100.00;60817.44;1041067;28;20025;-44
2021/01/15 00:29:00;;;;;;;12.07;8.60;;;;;;;-146.38;100.00;60817.44;1040978;28;20032;-44
2021/01/15 00:29:30;;;;;;;14.13;9.63;;;;;;;-146.38;100.00;60817.44;1041292;28;20025;-44
2021/01/15 00:30:01;;;;;;;12.80;9.43;;;;;;;-146.38;100.00;60817.44;1041193;28;20029;-43
2021/01/15 00:30:32;;;;;;;14.60;10.30;;;;;;;-146.38;100.00;60817.44;1041110;28;20029;-44
2021/01/15 00:31:02;;;;;;;14.10;9.43;;;;;;;-146.38;100.00;60817.44;1041048;28;20036;-45
2021/01/15 00:31:34;;;;;;;14.60;10.20;;;;;;;-146.38;100.00;60817.44;1041262;28;20429;-44
2021/01/15 00:32:05;;;;;;;15.45;9.93;;;;;;;-146.38;100.00;60817.44;1041205;28;20091;-44
2021/01/15 00:32:36;;;;;;;16.00;10.27;;;;;;;-146.38;100.00;60817.44;1040538;28;20068;-44
2021/01/15 00:33:06;;;;;;;17.50;9.93;;;;;;;-146.38;100.00;60817.44;1040616;28;20447;-45
2021/01/15 00:33:37;;;;;;;15.80;9.40;;;;;;;-146.38;100.00;60817.44;1040844;28;20076;-44
2021/01/15 00:34:09;;;;;;;16.03;9.77;;;;;;;-146.38;100.00;60817.44;1040763;28;20021;-45
2021/01/15 00:34:39;;;;;;;18.58;9.90;;;;;;;-146.38;100.00;60817.44;1041256;28;20096;-45
2021/01/15 00:35:10;;;;;;;13.73;9.53;;;;;;;-146.38;100.00;60817.44;1041166;28;20088;-44
2021/01/15 00:35:40;;;;;;;13.57;9.73;;;;;;;-146.38;100.00;60817.44;1041130;28;20044;-45
2021/01/15 00:36:11;;;;;;;15.43;10.00;;;;;;;-146.38;100.00;60817.44;1041111;28;20358;-44
2021/01/15 00:36:43;;;;;;;15.57;10.10;;;;;;;-146.38;100.00;60817.44;1040822;28;20025;-45
2021/01/15 00:37:14;;;;;;;16.00;10.13;;;;;;;-146.38;100.00;60817.44;1040829;28;20092;-44
2021/01/15 00:37:44;;;;;;;14.30;9.57;;;;;;;-146.38;100.00;60817.44;1040798;28;20105;-44
2021/01/15 00:38:15;;;;;;;14.60;9.93;;;;;;;-146.38;100.00;60817.44;1040874;28;20104;-45
2021/01/15 00:38:45;;;;;;;16.47;10.40;;;;;;;-146.38;100.00;60817.44;1041143;28;20029;-45
2021/01/15 00:39:16;;;;;;;15.70;9.67;;;;;;;-146.38;100.00;60817.44;1040886;28;20041;-45
2021/01/15 00:39:46;;;;;;;14.47;10.40;;;;;;;-146.38;100.00;60817.44;1036580;28;20140;-45
2021/01/15 00:40:17;;;;;;;13.50;10.07;;;;;;;-146.38;100.00;60817.44;1036523;28;20057;-45
2021/01/15 00:40:56;;;;;;;18.70;10.77;;;;;;;-146.38;100.00;60817.44;1036805;28;20018;-44
2021/01/15 00:41:26;;;;;;;14.40;10.45;;;;;;;-146.38;100.00;60817.44;1038018;28;20022;-44
2021/01/15 00:41:57;;;;;;;15.30;10.23;;;;;;;-146.38;100.00;60817.44;1040679;28;20478;-44
2021/01/15 00:42:27;;;;;;;18.90;10.70;;;;;;;-146.38;100.00;60817.44;1040722;28;20029;-45
2021/01/15 00:42:58;;;;;;;17.23;10.67;;;;;;;-146.38;100.00;60817.44;1040663;28;20056;-47
2021/01/15 00:43:28;;;;;;;12.20;9.70;;;;;;;-146.38;100.00;60817.44;1040783;28;20025;-45
2021/01/15 00:43:59;;;;;;;12.33;9.27;;;;;;;-146.38;100.00;60817.44;1036664;28;20032;-46
2021/01/15 00:44:30;;;;;;;15.93;9.30;;;;;;;-146.38;100.00;60817.44;1036767;28;20076;-45
2021/01/15 00:45:00;;;;;;;16.00;10.23;;;;;;;-146.38;100.00;60817.44;1032672;28;20026;-44
2021/01/15 00:45:31;;;;;;;15.03;10.17;;;;;;;-146.38;100.00;60817.44;1036853;28;20149;-44
2021/01/15 00:46:02;;;;;;;13.57;9.77;;;;;;;-146.38;100.00;60817.44;1040543;28;20505;-45
2021/01/15 00:46:33;;;;;;;14.37;9.87;;;;;;;-146.38;100.00;60817.44;1036651;28;20045;-45
2021/01/15 00:47:03;;;;;;;15.13;9.63;;;;;;;-146.38;100.00;60817.44;1037121;28;20463;-45
2021/01/15 00:47:34;;;;;;;15.70;9.63;;;;;;;-146.38;100.00;60817.44;1036884;28;20049;-44
2021/01/15 00:48:05;;;;;;;13.07;8.97;;;;;;;-146.38;100.00;60817.44;1036900;28;20381;-45
2021/01/15 00:48:35;;;;;;;13.77;9.30;;;;;;;-146.38;100.00;60817.44;1041184;28;20036;-45
2021/01/15 00:49:09;;;;;;;15.13;9.60;;;;;;;-146.38;100.00;60817.44;1041018;28;20083;-45
2021/01/15 00:49:39;;;;;;;15.68;9.98;;;;;;;-146.38;100.00;60817.44;1041229;28;20470;-46
2021/01/15 00:50:11;;;;;;;16.30;9.67;;;;;;;-146.38;100.00;60817.44;1041049;28;20092;-48
2021/01/15 00:50:41;;;;;;;13.57;9.63;;;;;;;-146.38;100.00;60817.44;1041100;28;20052;-45
2021/01/15 00:51:12;;;;;;;13.43;9.63;;;;;;;-146.38;100.00;60817.44;1041100;28;20013;-48
2021/01/15 00:51:49;;;;;;;13.17;9.93;;;;;;;-146.38;100.00;60817.44;1041183;28;20049;-46
2021/01/15 00:52:20;;;;;;;18.10;9.90;;;;;;;-146.38;100.00;60817.44;1040917;28;20022;-48
2021/01/15 00:52:52;;;;;;;17.63;10.00;;;;;;;-146.38;100.00;60817.44;1040913;28;20045;-44
2021/01/15 00:53:23;;;;;;;13.80;9.82;;;;;;;-146.38;100.00;60817.44;1040687;28;20071;-45
2021/01/15 00:53:53;;;;;;;15.33;9.80;;;;;;;-146.38;100.00;60817.44;1040700;28;20159;-45
2021/01/15 00:54:24;;;;;;;11.67;8.90;;;;;;;-146.38;100.00;60817.44;1040717;28;20498;-47
2021/01/15 00:54:54;;;;;;;11.43;8.80;;;;;;;-146.38;100.00;60817.44;1040755;28;20032;-48
2021/01/15 00:55:25;;;;;;;12.33;9.37;;;;;;;-146.38;100.00;60817.44;1041159;28;20040;-46
2021/01/15 00:55:55;;;;;;;14.97;9.80;;;;;;;-146.38;100.00;60817.44;1041064;28;20072;-46
2021/01/15 00:56:26;;;;;;;14.13;9.20;;;;;;;-146.38;100.00;60817.44;1041002;28;20017;-46
2021/01/15 00:57:02;;;;;;;13.07;9.10;;;;;;;-146.38;100.00;60817.44;1040660;28;20041;-46
2021/01/15 00:57:39;;;;;;;13.63;9.30;;;;;;;-146.38;100.00;60817.44;1040866;28;20075;-46
2021/01/15 00:58:13;;;;;;;16.58;9.88;;;;;;;-146.38;100.00;60817.44;1040911;28;20047;-45
2021/01/15 00:58:47;;;;;;;15.57;9.60;;;;;;;-146.38;100.00;60817.44;1040850;28;20028;-45
2021/01/15 00:59:17;;;;;;;15.00;8.98;;;;;;;-146.38;100.00;60817.44;1040795;28;20347;-46
2021/01/15 00:59:48;;;;;;;14.70;9.93;;;;;;;-146.38;100.00;60817.44;1041015;28;20112;-48
2021/01/15 01:00:19;;;;;;;13.60;9.63;;;;;;;-146.38;100.00;60817.44;1040924;28;20014;-45
2021/01/15 01:00:49;;;;;;;13.55;10.27;;;;;;;-146.38;100.00;60817.44;1041247;28;20083;-47
2021/01/15 01:01:22;;;;;;;14.07;9.60;;;;;;;-146.38;100.00;60817.44;1040662;28;20493;-47
2021/01/15 01:01:52;;;;;;;11.77;9.50;;;;;;;-146.38;100.00;60817.44;1040615;28;20379;-45
2021/01/15 01:02:23;;;;;;;14.47;9.60;;;;;;;-146.38;100.00;60817.44;1040720;28;20051;-45
2021/01/15 01:02:53;;;;;;;12.60;9.23;;;;;;;-146.38;100.00;60817.44;1040558;28;20068;-47
2021/01/15 01:03:24;;;;;;;14.50;9.83;;;;;;;-146.38;100.00;60817.44;1041020;28;20426;-45
2021/01/15 01:03:54;;;;;;;14.83;10.07;;;;;;;-146.38;100.00;60817.44;1040786;28;20075;-45
2021/01/15 01:04:45;;;;;;;13.07;9.10;;;;;;;-146.38;100.00;60817.44;1040860;28;20063;-44
2021/01/15 01:05:16;;;;;;;13.98;9.70;;;;;;;-146.38;100.00;60817.44;1036209;28;20543;-44
2021/01/15 01:05:46;;;;;;;17.17;9.27;;;;;;;-146.38;100.00;60817.44;1039426;28;20053;-45
2021/01/15 01:06:19;;;;;;;14.93;9.60;;;;;;;-146.38;100.00;60817.44;1040499;28;20040;-46
2021/01/15 01:06:49;;;;;;;14.77;9.55;;;;;;;-146.38;100.00;60817.44;1040578;28;20009;-45
2021/01/15 01:07:20;;;;;;;15.47;9.53;;;;;;;-146.38;100.00;60817.44;1040498;28;20022;-46
2021/01/15 01:07:50;;;;;;;15.80;10.03;;;;;;;-146.38;100.00;60817.44;1040403;28;20107;-45
2021/01/15 01:08:21;;;;;;;15.87;9.87;;;;;;;-146.38;100.00;60817.44;1040473;28;20018;-45
2021/01/15 01:08:51;;;;;;;16.20;9.53;;;;;;;-146.38;100.00;60817.44;1040350;28;20017;-46
2021/01/15 01:09:22;;;;;;;15.30;10.47;;;;;;;-146.38;100.00;60817.44;1040677;28;20063;-46
2021/01/15 01:09:52;;;;;;;13.50;9.40;;;;;;;-146.38;100.00;60817.44;1036397;28;20422;-46
2021/01/15 01:10:23;;;;;;;14.53;9.70;;;;;;;-146.38;100.00;60817.44;1036278;28;20124;-45
2021/01/15 01:10:53;;;;;;;13.53;9.67;;;;;;;-146.38;100.00;60817.44;1036406;28;20089;-43
2021/01/15 01:11:24;;;;;;;16.67;10.07;;;;;;;-146.38;100.00;60817.44;1032622;28;20130;-44
2021/01/15 01:11:57;;;;;;;16.10;10.37;;;;;;;-146.38;100.00;60817.44;1036510;28;20025;-44
2021/01/15 01:12:28;;;;;;;13.50;9.77;;;;;;;-146.38;100.00;60817.44;1036552;28;20021;-44
2021/01/15 01:12:58;;;;;;;11.73;9.57;;;;;;;-146.38;100.00;60817.44;1036304;28;20077;-44
2021/01/15 01:13:29;;;;;;;13.17;9.60;;;;;;;-146.38;100.00;60817.44;1040599;28;20049;-45
2021/01/15 01:14:00;;;;;;;16.23;10.00;;;;;;;-146.38;100.00;60817.44;1040368;28;20018;-45
2021/01/15 01:14:30;;;;;;;13.45;9.93;;;;;;;-146.38;100.00;60817.44;1040488;28;20014;-45
2021/01/15 01:15:01;;;;;;;16.40;9.87;;;;;;;-146.38;100.00;60817.44;1040303;28;20100;-45
2021/01/15 01:15:31;;;;;;;16.10;9.20;;;;;;;-146.38;100.00;60817.44;1040638;28;20024;-44
2021/01/15 01:16:02;;;;;;;12.70;9.70;;;;;;;-146.38;100.00;60817.44;1040610;28;20514;-44
2021/01/15 01:16:32;;;;;;;14.90;10.40;;;;;;;-146.38;100.00;60817.44;1040582;28;20022;-45
2021/01/15 01:17:03;;;;;;;15.20;9.50;;;;;;;-146.38;100.00;60817.44;1040501;28;20021;-46
2021/01/15 01:17:33;;;;;;;16.10;9.50;;;;;;;-146.38;100.00;60817.44;1040701;28;20486;-45
2021/01/15 01:18:04;;;;;;;18.10;10.00;;;;;;;-146.38;100.00;60817.44;1040305;28;20120;-45
2021/01/15 01:18:35;;;;;;;12.10;9.17;;;;;;;-146.38;100.00;60817.44;1040629;28;20092;-47
2021/01/15 01:19:05;;;;;;;12.87;9.23;;;;;;;-146.38;100.00;60817.44;1040375;28;20087;-46
2021/01/15 01:19:36;;;;;;;13.37;9.67;;;;;;;-146.38;100.00;60817.44;1040658;28;20113;-46
2021/01/15 01:20:07;;;;;;;12.20;10.03;;;;;;;-146.38;100.00;60817.44;1040610;28;20049;-45
2021/01/15 01:20:37;;;;;;;16.98;9.88;;;;;;;-146.38;100.00;60817.44;1040585;28;20037;-45
2021/01/15 01:21:08;;;;;;;13.20;9.73;;;;;;;-146.38;100.00;60817.44;1040466;28;20081;-44
2021/01/15 01:21:39;;;;;;;12.60;9.02;;;;;;;-146.38;100.00;60817.44;1040326;28;20025;-45
2021/01/15 01:22:10;;;;;;;14.37;9.50;;;;;;;-146.38;100.00;60817.44;1040434;28;20017;-44
2021/01/15 01:22:40;;;;;;;12.77;9.10;;;;;;;-146.38;100.00;60817.44;1040391;28;20022;-45
2021/01/15 01:23:11;;;;;;;14.27;9.93;;;;;;;-146.38;100.00;60817.44;1040282;28;20017;-44
2021/01/15 01:23:42;;;;;;;13.37;9.37;;;;;;;-146.38;100.00;60817.44;1040538;28;20474;-46
2021/01/15 01:24:12;;;;;;;15.40;10.15;;;;;;;-146.38;100.00;60817.44;1040360;28;20105;-46
2021/01/15 01:24:43;;;;;;;12.33;9.00;;;;;;;-146.38;100.00;60817.44;1040389;28;20108;-45
2021/01/15 01:25:13;;;;;;;13.33;9.43;;;;;;;-146.38;100.00;60817.44;1040369;28;20425;-46
2021/01/15 01:25:44;;;;;;;14.03;9.13;;;;;;;-146.38;100.00;60817.44;1040422;28;20648;-46
2021/01/15 01:26:14;;;;;;;12.53;8.87;;;;;;;-146.38;100.00;60817.44;1040454;28;20021;-47
2021/01/15 01:26:45;;;;;;;14.97;9.90;;;;;;;-146.38;100.00;60817.44;1040438;28;20037;-46
2021/01/15 01:27:15;;;;;;;12.43;9.33;;;;;;;-146.38;100.00;60817.44;1040488;28;20017;-45
2021/01/15 01:27:46;;;;;;;12.63;9.40;;;;;;;-146.38;100.00;60817.44;1040513;28;20028;-45
2021/01/15 01:28:18;;;;;;;14.27;9.67;;;;;;;-146.38;100.00;60817.44;1040547;28;20112;-45
2021/01/15 01:28:48;;;;;;;12.18;9.35;;;;;;;-146.38;100.00;60817.44;1040363;28;20021;-46
2021/01/15 01:29:19;;;;;;;15.23;9.73;;;;;;;-146.38;100.00;60817.44;1040426;28;20127;-45
2021/01/15 01:29:49;;;;;;;14.13;9.63;;;;;;;-146.38;100.00;60817.44;1040490;28;20025;-46
2021/01/15 01:30:20;;;;;;;13.60;9.27;;;;;;;-146.38;100.00;60817.44;1040619;28;20381;-47
2021/01/15 01:30:51;;;;;;;13.33;8.87;;;;;;;-146.38;100.00;60817.44;1040318;28;20074;-48
2021/01/15 01:31:21;;;;;;;12.20;9.43;;;;;;;-146.38;100.00;60817.44;1040787;28;20052;-44
2021/01/15 01:31:52;;;;;;;14.67;9.40;;;;;;;-146.38;100.00;60817.44;1040549;28;20083;-44
2021/01/15 01:32:22;;;;;;;16.20;9.83;;;;;;;-146.38;100.00;60817.44;1040608;28;20024;-44
2021/01/15 01:32:53;;;;;;;11.97;9.40;;;;;;;-146.38;100.00;60817.44;1040222;28;20109;-46
2021/01/15 01:33:23;;;;;;;13.77;9.57;;;;;;;-146.38;100.00;60817.44;1040559;28;20354;-44
2021/01/15 01:33:54;;;;;;;12.63;9.33;;;;;;;-146.38;100.00;60817.44;1040272;28;20033;-46
2021/01/15 01:34:24;;;;;;;15.93;9.87;;;;;;;-146.38;100.00;60817.44;1036322;28;20550;-46
2021/01/15 01:34:55;;;;;;;14.23;9.87;;;;;;;-146.38;100.00;60817.44;1036206;28;20018;-46
2021/01/15 01:35:25;;;;;;;12.23;9.57;;;;;;;-146.38;100.00;60817.44;1036305;28;20028;-45
2021/01/15 01:35:56;;;;;;;14.13;9.87;;;;;;;-146.38;100.00;60817.44;1036149;28;20022;-46
2021/01/15 01:36:26;;;;;;;15.93;9.83;;;;;;;-146.38;100.00;60817.44;1040672;28;20017;-45
2021/01/15 01:36:57;;;;;;;14.67;10.23;;;;;;;-146.38;100.00;60817.44;1040276;28;20518;-44
2021/01/15 01:37:27;;;;;;;16.17;9.07;;;;;;;-146.38;100.00;60817.44;1040558;28;20068;-46
2021/01/15 01:37:58;;;;;;;14.83;9.57;;;;;;;-146.38;100.00;60817.44;1036038;28;20161;-46
2021/01/15 01:38:28;;;;;;;13.47;9.23;;;;;;;-146.38;100.00;60817.44;1036184;28;20026;-44
2021/01/15 01:38:59;;;;;;;12.27;9.33;;;;;;;-146.38;100.00;60817.44;1036253;28;20341;-46
2021/01/15 01:39:29;;;;;;;14.70;9.80;;;;;;;-146.38;100.00;60817.44;1036459;28;20032;-45
2021/01/15 01:40:00;;;;;;;12.63;9.27;;;;;;;-146.38;100.00;60817.44;1040516;28;20025;-45
2021/01/15 01:40:31;;;;;;;15.00;9.73;;;;;;;-146.38;100.00;60817.44;1040338;28;20045;-44
2021/01/15 01:41:01;;;;;;;14.23;9.20;;;;;;;-146.38;100.00;60817.44;1040381;28;20045;-47
2021/01/15 01:41:32;;;;;;;14.43;10.07;;;;;;;-146.38;100.00;60817.44;1040477;28;20068;-46
2021/01/15 01:42:02;;;;;;;12.40;9.40;;;;;;;-146.38;100.00;60817.44;1036183;28;20467;-45
2021/01/15 01:42:33;;;;;;;12.43;9.37;;;;;;;-146.38;100.00;60817.44;1036295;28;20092;-45
2021/01/15 01:43:03;;;;;;;15.30;9.80;;;;;;;-146.38;100.00;60817.44;1036070;28;20018;-45
2021/01/15 01:43:34;;;;;;;12.77;8.87;;;;;;;-146.38;100.00;60817.44;1040384;28;20086;-44
2021/01/15 01:44:04;;;;;;;13.80;9.80;;;;;;;-146.38;100.00;60817.44;1040955;28;20108;-45
2021/01/15 01:44:35;;;;;;;15.57;10.03;;;;;;;-146.38;100.00;60817.44;1040863;28;20022;-45
2021/01/15 01:45:06;;;;;;;14.10;9.73;;;;;;;-146.38;100.00;60817.44;1040787;28;20366;-46
2021/01/15 01:45:37;;;;;;;13.95;9.48;;;;;;;-146.38;100.00;60817.44;1040643;28;20095;-44
2021/01/15 01:46:07;;;;;;;16.27;9.67;;;;;;;-146.38;100.00;60817.44;1040332;28;20531;-45
2021/01/15 01:46:38;;;;;;;13.43;9.60;;;;;;;-146.38;100.00;60817.44;1040524;28;20017;-45
2021/01/15 01:47:08;;;;;;;14.57;10.17;;;;;;;-146.38;100.00;60817.44;1032454;28;20034;-47
2021/01/15 01:47:39;;;;;;;13.17;9.13;;;;;;;-146.38;100.00;60817.44;1028487;28;20014;-45
2021/01/15 01:48:09;;;;;;;12.27;9.13;;;;;;;-146.38;100.00;60817.44;1028446;28;20015;-44
2021/01/15 01:48:40;;;;;;;14.33;9.30;;;;;;;-146.38;100.00;60817.44;1028498;28;20023;-45
2021/01/15 01:49:11;;;;;;;13.73;9.23;;;;;;;-146.38;100.00;60817.44;1028652;28;20492;-45
2021/01/15 01:49:41;;;;;;;15.30;10.10;;;;;;;-146.38;100.00;60817.44;1028587;28;20026;-46
2021/01/15 01:50:12;;;;;;;11.23;9.47;;;;;;;-146.38;100.00;60817.44;1024573;28;20328;-45
2021/01/15 01:50:43;;;;;;;13.77;9.43;;;;;;;-146.38;100.00;60817.44;1028838;28;20015;-45
2021/01/15 01:51:13;;;;;;;16.33;9.87;;;;;;;-146.38;100.00;60817.44;1032417;28;20064;-46
2021/01/15 01:51:45;;;;;;;12.20;9.23;;;;;;;-146.38;100.00;60817.44;1036668;28;20557;-45
2021/01/15 01:52:15;;;;;;;15.52;10.20;;;;;;;-146.38;100.00;60817.44;1040548;28;20018;-45
2021/01/15 01:52:46;;;;;;;12.50;9.50;;;;;;;-146.38;100.00;60817.44;1040217;28;20018;-45
2021/01/15 01:53:18;;;;;;;12.87;9.87;;;;;;;-146.38;100.00;60817.44;1040557;28;20124;-49
2021/01/15 01:53:48;;;;;;;14.63;9.05;;;;;;;-146.38;100.00;60817.44;1036350;28;20534;-46
2021/01/15 01:54:19;;;;;;;12.73;9.30;;;;;;;-146.38;100.00;60817.44;1028210;28;20019;-45
2021/01/15 01:54:49;;;;;;;14.83;9.50;;;;;;;-146.38;100.00;60817.44;1024500;28;20026;-47
2021/01/15 01:55:20;;;;;;;14.90;9.93;;;;;;;-146.38;100.00;60817.44;1024548;28;20050;-46
2021/01/15 01:55:50;;;;;;;11.63;9.10;;;;;;;-146.38;100.00;60817.44;1024662;28;20046;-46
2021/01/15 01:56:21;;;;;;;13.10;9.37;;;;;;;-146.38;100.00;60817.44;1032440;28;20025;-47
2021/01/15 01:56:51;;;;;;;16.67;9.40;;;;;;;-146.38;100.00;60817.44;1036572;28;20014;-48
2021/01/15 01:57:22;;;;;;;14.73;9.90;;;;;;;-146.38;100.00;60817.44;1036373;28;20022;-47
2021/01/15 01:57:52;;;;;;;13.17;9.10;;;;;;;-146.38;100.00;60817.44;1032393;28;20049;-46
2021/01/15 01:58:23;;;;;;;15.47;9.60;;;;;;;-146.38;100.00;60817.44;1032408;28;20087;-46
2021/01/15 01:58:53;;;;;;;14.50;9.47;;;;;;;-146.38;100.00;60817.44;1032154;28;20029;-46
2021/01/15 01:59:24;;;;;;;13.73;9.57;;;;;;;-146.38;100.00;60817.44;1032412;28;20044;-45
2021/01/15 01:59:54;;;;;;;14.07;9.37;;;;;;;-146.38;100.00;60817.44;1032487;28;20046;-45
2021/01/15 02:00:25;;;;;;;13.50;9.50;;;;;;;-146.38;100.00;60817.44;1032577;28;20116;-46
2021/01/15 02:01:03;;;;;;;12.73;9.10;;;;;;;-146.38;100.00;60817.44;1028518;28;20027;-47
2021/01/15 02:01:33;;;;;;;13.20;9.00;;;;;;;-146.38;100.00;60817.44;1037609;28;20147;-46
2021/01/15 02:02:22;;;;;;;14.25;9.13;;;;;;;-146.38;100.00;60817.44;1040668;28;20072;-46
2021/01/15 02:03:15;;;;;;;17.13;8.85;;;;;;;-146.38;100.00;60817.44;1040744;28;20040;-46
2021/01/15 02:03:46;;;;;;;14.77;9.02;;;;;;;-146.38;100.00;60817.44;1040700;28;20077;-47
2021/01/15 02:04:17;;;;;;;11.63;9.00;;;;;;;-146.38;100.00;60817.44;1041040;28;20017;-46
2021/01/15 02:04:47;;;;;;;16.63;9.10;;;;;;;-146.38;100.00;60817.44;1040853;28;20017;-46
2021/01/15 02:05:18;;;;;;;12.93;8.57;;;;;;;-146.38;100.00;60817.44;1040831;28;20521;-45
2021/01/15 02:05:48;;;;;;;14.30;8.73;;;;;;;-146.38;100.00;60817.44;1040892;28;20100;-47
2021/01/15 02:06:19;;;;;;;15.73;9.70;;;;;;;-146.38;100.00;60817.44;1040994;28;20116;-46
2021/01/15 02:06:49;;;;;;;12.57;8.33;;;;;;;-146.38;100.00;60817.44;1036612;28;20010;-46
2021/01/15 02:07:20;;;;;;;12.37;8.43;;;;;;;-146.38;100.00;60817.44;1036433;28;20028;-46
2021/01/15 02:07:50;;;;;;;14.07;8.83;;;;;;;-146.38;100.00;60817.44;1036406;28;20018;-46
2021/01/15 02:08:21;;;;;;;14.57;9.40;;;;;;;-146.38;100.00;60817.44;1036522;28;20089;-46
2021/01/15 02:08:51;;;;;;;12.40;7.90;;;;;;;-146.38;100.00;60817.44;1040068;28;20068;-48
2021/01/15 02:09:58;;;;;;;14.40;9.50;;;;;;;-146.38;100.00;60817.44;1040246;28;20024;-47
2021/01/15 02:10:40;;;;;;;14.45;9.15;;;;;;;-146.38;100.00;60817.44;1040221;28;20076;-45
2021/01/15 02:11:22;;;;;;;12.95;8.27;;;;;;;-146.38;100.00;60817.44;1036453;28;20022;-45
2021/01/15 02:12:01;;;;;;;17.42;9.25;;;;;;;-146.38;100.00;60817.44;1039153;28;20025;-47
2021/01/15 02:13:04;;;;;;;10.98;7.97;;;;;;;-146.38;100.00;60817.44;1040402;28;20339;-48
2021/01/15 02:13:57;;;;;;;13.27;8.98;;;;;;;-146.38;100.00;60817.44;1040588;28;20076;-44
2021/01/15 02:14:51;;;;;;;13.90;8.45;;;;;;;-146.38;100.00;60817.44;1036353;28;20048;-45
2021/01/15 02:15:41;;;;;;;12.30;8.07;;;;;;;-146.38;100.00;60817.44;1035848;28;20026;-46
2021/01/15 02:16:13;;;;;;;11.70;8.00;;;;;;;-146.38;100.00;60817.44;1038068;28;20247;-45
2021/01/15 02:16:43;;;;;;;13.73;8.32;;;;;;;-146.38;100.00;60817.44;1028260;28;20034;-45
2021/01/15 02:17:16;;;;;;;14.90;8.97;;;;;;;-146.38;100.00;60817.44;1024267;29;20035;-45
2021/01/15 02:17:55;;;;;;;16.25;8.75;;;;;;;-146.38;100.00;60817.44;1023359;29;20030;-45
2021/01/15 02:18:45;;;;;;;13.40;9.13;;;;;;;-146.38;100.00;60817.44;1029119;28;20429;-45
2021/01/15 02:19:37;;;;;;;12.85;7.60;;;;;;;-146.38;100.00;60817.44;1032470;28;20023;-45
2021/01/15 02:20:18;;;;;;;11.45;8.32;;;;;;;-146.38;100.00;60817.44;1036412;28;20086;-45
2021/01/15 02:21:00;;;;;;;15.05;8.07;;;;;;;-146.38;100.00;60817.44;1034344;28;20352;-45
2021/01/15 02:21:58;;;;;;;13.18;7.90;;;;;;;-146.38;100.00;60817.44;1036573;28;20063;-50
2021/01/15 02:22:44;;;;;;;16.15;9.18;;;;;;;-146.38;100.00;60817.44;1037753;28;20502;-45
2021/01/15 02:23:28;;;;;;;18.05;9.02;;;;;;;-146.38;100.00;60817.44;1040314;28;20020;-46
2021/01/15 02:24:08;;;;;;;13.82;8.15;;;;;;;-146.38;100.00;60817.44;1040405;28;20563;-45
2021/01/15 02:25:02;;;;;;;11.90;8.40;;;;;;;-146.38;100.00;60817.44;1040588;28;20474;-45